sensor_id;sensor_type;location;lat;lon;timestamp;pressure;altitude;pressure_sealevel;temperature;humidity
32735;BME280;19112;51.076;3.706;2023-02-16T00:00:39;102339.34;;;8.50;69.86
32735;BME280;19112;51.076;3.706;2023-02-16T00:03:04;102120.22;;;7.26;69.96
32735;BME280;19112;51.076;3.706;2023-02-16T00:05:33;102157.34;;;7.47;70.12
32735;BME280;19112;51.076;3.706;2023-02-16T00:08:00;102232.94;;;7.97;69.95
32735;BME280;19112;51.076;3.706;2023-02-16T00:10:31;102303.81;;;8.27;69.98
32735;BME280;19112;51.076;3.706;2023-02-16T00:12:57;102015.31;;;6.67;69.96
32735;BME280;19112;51.076;3.706;2023-02-16T00:15:42;102122.03;;;7.27;70.26
32735;BME280;19112;51.076;3.706;2023-02-16T00:18:18;102148.78;;;7.50;69.84
32735;BME280;19112;51.076;3.706;2023-02-16T00:20:46;102077.00;;;7.05;70.07
32735;BME280;19112;51.076;3.706;2023-02-16T00:23:12;102330.81;;;8.52;70.22
32735;BME280;19112;51.076;3.706;2023-02-16T00:25:38;102254.78;;;8.11;70.67
32735;BME280;19112;51.076;3.706;2023-02-16T00:28:13;102327.25;;;8.52;70.58
32735;BME280;19112;51.076;3.706;2023-02-16T00:30:40;102331.59;;;8.51;70.75
32735;BME280;19112;51.076;3.706;2023-02-16T00:33:18;102074.78;;;7.24;70.92
32735;BME280;19112;51.076;3.706;2023-02-16T00:35:44;102277.13;;;8.32;70.48
32735;BME280;19112;51.076;3.706;2023-02-16T00:38:11;101773.97;;;5.56;70.08
32735;BME280;19112;51.076;3.706;2023-02-16T00:40:38;102318.69;;;8.68;70.83
32735;BME280;19112;51.076;3.706;2023-02-16T00:43:04;102050.28;;;7.22;70.79
32735;BME280;19112;51.076;3.706;2023-02-16T00:45:34;102341.13;;;8.77;70.55
32735;BME280;19112;51.076;3.706;2023-02-16T00:48:01;102006.09;;;6.99;70.68
32735;BME280;19112;51.076;3.706;2023-02-16T00:50:32;102065.78;;;7.46;70.47
32735;BME280;19112;51.076;3.706;2023-02-16T00:52:59;102196.75;;;8.17;70.22
32735;BME280;19112;51.076;3.706;2023-02-16T00:55:33;102232.25;;;8.39;70.44
32735;BME280;19112;51.076;3.706;2023-02-16T00:58:07;102090.41;;;7.63;70.44
32735;BME280;19112;51.076;3.706;2023-02-16T01:00:52;102059.34;;;7.54;69.95
32735;BME280;19112;51.076;3.706;2023-02-16T01:03:25;102026.59;;;7.32;69.74
32735;BME280;19112;51.076;3.706;2023-02-16T01:05:52;101798.53;;;5.98;69.94
32735;BME280;19112;51.076;3.706;2023-02-16T01:08:38;102153.19;;;8.04;69.61
32735;BME280;19112;51.076;3.706;2023-02-16T01:11:23;102195.34;;;8.22;69.20
32735;BME280;19112;51.076;3.706;2023-02-16T01:13:51;102222.81;;;8.42;70.14
32735;BME280;19112;51.076;3.706;2023-02-16T01:16:33;102304.09;;;8.84;69.82
32735;BME280;19112;51.076;3.706;2023-02-16T01:19:00;102158.41;;;8.04;69.86
32735;BME280;19112;51.076;3.706;2023-02-16T01:21:26;102246.84;;;8.49;69.97
32735;BME280;19112;51.076;3.706;2023-02-16T01:23:51;101974.38;;;6.93;69.50
32735;BME280;19112;51.076;3.706;2023-02-16T01:26:18;102284.78;;;8.69;69.91
32735;BME280;19112;51.076;3.706;2023-02-16T01:28:45;102289.72;;;8.64;70.32
32735;BME280;19112;51.076;3.706;2023-02-16T01:31:12;102201.75;;;8.13;70.13
32735;BME280;19112;51.076;3.706;2023-02-16T01:33:40;102285.38;;;8.65;70.67
32735;BME280;19112;51.076;3.706;2023-02-16T01:36:24;102284.88;;;8.71;70.59
32735;BME280;19112;51.076;3.706;2023-02-16T01:38:51;102179.25;;;8.16;70.59
32735;BME280;19112;51.076;3.706;2023-02-16T01:44:15;102255.75;;;8.66;70.17
32735;BME280;19112;51.076;3.706;2023-02-16T01:46:54;101955.50;;;7.10;69.73
32735;BME280;19112;51.076;3.706;2023-02-16T01:49:21;102308.22;;;9.09;69.57
32735;BME280;19112;51.076;3.706;2023-02-16T01:52:06;102210.56;;;8.69;69.42
32735;BME280;19112;51.076;3.706;2023-02-16T01:54:43;102284.63;;;9.22;69.36
32735;BME280;19112;51.076;3.706;2023-02-16T01:57:46;102282.69;;;9.19;68.91
32735;BME280;19112;51.076;3.706;2023-02-16T02:03:38;102136.00;;;8.35;68.74
32735;BME280;19112;51.076;3.706;2023-02-16T02:06:31;102190.94;;;8.62;69.55
32735;BME280;19112;51.076;3.706;2023-02-16T02:09:16;102186.19;;;8.70;69.17
32735;BME280;19112;51.076;3.706;2023-02-16T02:12:31;102265.16;;;9.18;69.33
32735;BME280;19112;51.076;3.706;2023-02-16T02:14:59;101977.22;;;7.50;69.36
32735;BME280;19112;51.076;3.706;2023-02-16T02:17:25;102175.50;;;8.66;68.97
32735;BME280;19112;51.076;3.706;2023-02-16T02:20:40;102268.06;;;9.23;68.64
32735;BME280;19112;51.076;3.706;2023-02-16T02:29:36;101934.22;;;7.45;68.96
32735;BME280;19112;51.076;3.706;2023-02-16T02:32:48;102271.97;;;9.30;68.86
32735;BME280;19112;51.076;3.706;2023-02-16T02:35:35;102238.25;;;9.36;69.12
32735;BME280;19112;51.076;3.706;2023-02-16T02:38:31;102251.09;;;9.31;68.89
32735;BME280;19112;51.076;3.706;2023-02-16T02:41:17;102196.84;;;9.01;69.13
32735;BME280;19112;51.076;3.706;2023-02-16T02:43:56;102197.50;;;9.11;68.90
32735;BME280;19112;51.076;3.706;2023-02-16T02:46:31;102160.97;;;9.00;68.94
32735;BME280;19112;51.076;3.706;2023-02-16T02:48:58;102009.75;;;8.25;68.71
32735;BME280;19112;51.076;3.706;2023-02-16T02:51:24;102062.66;;;8.62;68.31
32735;BME280;19112;51.076;3.706;2023-02-16T02:54:30;102192.75;;;9.49;68.39
32735;BME280;19112;51.076;3.706;2023-02-16T03:00:25;102209.09;;;9.59;68.27
32735;BME280;19112;51.076;3.706;2023-02-16T03:03:23;102161.28;;;9.34;68.00
32735;BME280;19112;51.076;3.706;2023-02-16T03:06:16;102237.69;;;9.69;68.51
32735;BME280;19112;51.076;3.706;2023-02-16T03:08:49;102193.91;;;9.54;68.50
32735;BME280;19112;51.076;3.706;2023-02-16T03:11:26;102131.72;;;9.22;68.23
32735;BME280;19112;51.076;3.706;2023-02-16T03:14:31;102168.59;;;9.39;68.38
32735;BME280;19112;51.076;3.706;2023-02-16T03:17:22;102120.22;;;9.05;68.30
32735;BME280;19112;51.076;3.706;2023-02-16T03:20:12;102132.44;;;9.19;68.24
32735;BME280;19112;51.076;3.706;2023-02-16T03:22:58;102213.97;;;9.68;68.62
32735;BME280;19112;51.076;3.706;2023-02-16T03:25:45;102126.84;;;9.13;68.55
32735;BME280;19112;51.076;3.706;2023-02-16T03:28:31;102119.81;;;9.12;68.73
32735;BME280;19112;51.076;3.706;2023-02-16T03:31:24;102102.09;;;9.08;68.70
32735;BME280;19112;51.076;3.706;2023-02-16T03:33:52;102164.00;;;9.50;68.55
32735;BME280;19112;51.076;3.706;2023-02-16T03:36:25;102213.22;;;9.85;67.99
32735;BME280;19112;51.076;3.706;2023-02-16T03:38:53;101913.50;;;8.19;67.96
32735;BME280;19112;51.076;3.706;2023-02-16T03:41:19;102134.44;;;9.38;67.92
32735;BME280;19112;51.076;3.706;2023-02-16T03:43:45;101916.78;;;8.15;68.30
32735;BME280;19112;51.076;3.706;2023-02-16T03:46:11;102026.84;;;8.76;68.07
32735;BME280;19112;51.076;3.706;2023-02-16T03:48:37;101961.16;;;8.28;68.25
32735;BME280;19112;51.076;3.706;2023-02-16T03:51:03;101811.59;;;7.33;67.90
32735;BME280;19112;51.076;3.706;2023-02-16T03:53:28;102213.06;;;9.82;67.95
32735;BME280;19112;51.076;3.706;2023-02-16T03:55:54;102046.72;;;8.87;67.72
32735;BME280;19112;51.076;3.706;2023-02-16T03:58:22;101929.41;;;8.22;67.74
32735;BME280;19112;51.076;3.706;2023-02-16T04:00:49;102060.16;;;8.93;68.24
32735;BME280;19112;51.076;3.706;2023-02-16T04:03:16;101991.09;;;8.61;68.16
32735;BME280;19112;51.076;3.706;2023-02-16T04:05:42;101940.22;;;8.28;68.01
32735;BME280;19112;51.076;3.706;2023-02-16T04:08:09;102212.72;;;9.76;68.30
32735;BME280;19112;51.076;3.706;2023-02-16T04:10:36;102142.94;;;9.34;68.06
32735;BME280;19112;51.076;3.706;2023-02-16T04:13:03;102215.59;;;9.81;68.55
32735;BME280;19112;51.076;3.706;2023-02-16T04:15:29;102219.41;;;9.86;68.32
32735;BME280;19112;51.076;3.706;2023-02-16T04:17:56;102066.22;;;9.07;67.94
32735;BME280;19112;51.076;3.706;2023-02-16T04:20:26;102207.88;;;9.98;67.55
32735;BME280;19112;51.076;3.706;2023-02-16T04:22:52;102206.53;;;9.90;67.81
32735;BME280;19112;51.076;3.706;2023-02-16T04:25:19;102198.66;;;9.90;68.11
32735;BME280;19112;51.076;3.706;2023-02-16T04:27:45;101957.78;;;8.59;67.82
32735;BME280;19112;51.076;3.706;2023-02-16T04:30:15;102197.75;;;9.90;67.81
32735;BME280;19112;51.076;3.706;2023-02-16T04:32:41;101704.84;;;7.10;67.73
32735;BME280;19112;51.076;3.706;2023-02-16T04:35:07;102198.41;;;9.86;67.96
32735;BME280;19112;51.076;3.706;2023-02-16T04:37:33;102120.50;;;9.24;68.55
32735;BME280;19112;51.076;3.706;2023-02-16T04:39:59;102163.44;;;9.56;68.30
32735;BME280;19112;51.076;3.706;2023-02-16T04:42:25;102195.34;;;9.63;68.33
32735;BME280;19112;51.076;3.706;2023-02-16T04:44:51;102205.66;;;9.75;68.51
32735;BME280;19112;51.076;3.706;2023-02-16T04:47:18;102196.16;;;9.62;68.39
32735;BME280;19112;51.076;3.706;2023-02-16T04:49:43;102117.00;;;9.38;68.39
32735;BME280;19112;51.076;3.706;2023-02-16T04:52:11;102198.22;;;9.83;68.35
32735;BME280;19112;51.076;3.706;2023-02-16T04:54:38;101970.59;;;8.54;68.10
32735;BME280;19112;51.076;3.706;2023-02-16T04:57:04;102113.19;;;9.33;68.33
32735;BME280;19112;51.076;3.706;2023-02-16T04:59:30;102021.97;;;8.82;68.53
32735;BME280;19112;51.076;3.706;2023-02-16T05:01:55;101866.16;;;8.00;68.13
32735;BME280;19112;51.076;3.706;2023-02-16T05:04:23;101969.44;;;8.64;68.04
32735;BME280;19112;51.076;3.706;2023-02-16T05:06:49;102022.78;;;8.96;67.90
32735;BME280;19112;51.076;3.706;2023-02-16T05:09:14;102191.06;;;9.95;68.25
32735;BME280;19112;51.076;3.706;2023-02-16T05:11:40;102125.09;;;9.58;68.11
32735;BME280;19112;51.076;3.706;2023-02-16T05:14:28;102089.78;;;9.36;68.15
32735;BME280;19112;51.076;3.706;2023-02-16T05:17:20;102073.63;;;9.14;68.53
32735;BME280;19112;51.076;3.706;2023-02-16T05:19:51;102098.31;;;9.32;68.58
32735;BME280;19112;51.076;3.706;2023-02-16T05:22:18;102130.63;;;9.48;68.44
32735;BME280;19112;51.076;3.706;2023-02-16T05:24:45;102061.16;;;9.10;68.24
32735;BME280;19112;51.076;3.706;2023-02-16T05:27:15;102056.38;;;9.17;68.23
32735;BME280;19112;51.076;3.706;2023-02-16T05:29:41;101991.72;;;8.87;68.05
32735;BME280;19112;51.076;3.706;2023-02-16T05:32:08;102127.28;;;9.65;67.96
32735;BME280;19112;51.076;3.706;2023-02-16T05:34:34;102210.47;;;10.13;67.85
32735;BME280;19112;51.076;3.706;2023-02-16T05:36:59;101441.50;;;5.85;67.58
32735;BME280;19112;51.076;3.706;2023-02-16T05:39:25;102115.22;;;9.68;67.73
32735;BME280;19112;51.076;3.706;2023-02-16T05:41:51;101961.94;;;8.85;67.46
32735;BME280;19112;51.076;3.706;2023-02-16T05:44:17;102105.84;;;9.57;67.66
32735;BME280;19112;51.076;3.706;2023-02-16T05:46:43;102210.97;;;10.22;67.70
32735;BME280;19112;51.076;3.706;2023-02-16T05:49:09;102007.78;;;9.08;67.41
32735;BME280;19112;51.076;3.706;2023-02-16T05:51:35;102166.38;;;9.91;67.75
32735;BME280;19112;51.076;3.706;2023-02-16T05:54:01;101993.09;;;8.80;67.69
32735;BME280;19112;51.076;3.706;2023-02-16T05:56:28;101975.72;;;8.82;67.99
32735;BME280;19112;51.076;3.706;2023-02-16T05:58:54;101949.47;;;8.66;67.73
32735;BME280;19112;51.076;3.706;2023-02-16T06:01:21;102124.47;;;9.62;68.01
32735;BME280;19112;51.076;3.706;2023-02-16T06:03:47;102204.97;;;10.09;68.15
32735;BME280;19112;51.076;3.706;2023-02-16T06:06:13;102069.28;;;9.29;67.92
32735;BME280;19112;51.076;3.706;2023-02-16T06:08:39;102171.25;;;9.85;67.93
32735;BME280;19112;51.076;3.706;2023-02-16T06:11:05;102220.72;;;10.09;68.09
32735;BME280;19112;51.076;3.706;2023-02-16T06:13:32;102218.00;;;10.07;68.34
32735;BME280;19112;51.076;3.706;2023-02-16T06:15:59;102113.44;;;9.53;68.33
32735;BME280;19112;51.076;3.706;2023-02-16T06:18:25;102181.31;;;9.92;68.18
32735;BME280;19112;51.076;3.706;2023-02-16T06:20:51;102094.53;;;9.58;68.06
32735;BME280;19112;51.076;3.706;2023-02-16T06:23:17;101903.81;;;8.46;67.81
32735;BME280;19112;51.076;3.706;2023-02-16T06:25:45;102083.16;;;9.58;67.83
32735;BME280;19112;51.076;3.706;2023-02-16T06:28:13;102139.97;;;9.88;67.99
32735;BME280;19112;51.076;3.706;2023-02-16T06:30:38;102217.44;;;10.28;68.04
32735;BME280;19112;51.076;3.706;2023-02-16T06:33:07;102206.28;;;10.17;68.30
32735;BME280;19112;51.076;3.706;2023-02-16T06:35:33;102116.69;;;9.63;68.46
32735;BME280;19112;51.076;3.706;2023-02-16T06:37:59;101941.91;;;8.56;68.34
32735;BME280;19112;51.076;3.706;2023-02-16T06:40:25;102079.84;;;9.45;68.33
32735;BME280;19112;51.076;3.706;2023-02-16T06:42:51;102139.09;;;9.73;68.05
32735;BME280;19112;51.076;3.706;2023-02-16T06:45:17;102106.03;;;9.60;68.28
32735;BME280;19112;51.076;3.706;2023-02-16T06:47:43;102227.47;;;10.35;68.25
32735;BME280;19112;51.076;3.706;2023-02-16T06:50:09;102144.66;;;9.94;68.07
32735;BME280;19112;51.076;3.706;2023-02-16T06:52:36;101953.34;;;8.87;67.78
32735;BME280;19112;51.076;3.706;2023-02-16T06:55:02;101921.41;;;8.63;68.11
32735;BME280;19112;51.076;3.706;2023-02-16T06:57:28;102234.50;;;10.51;67.93
32735;BME280;19112;51.076;3.706;2023-02-16T06:59:54;102097.16;;;9.58;67.65
32735;BME280;19112;51.076;3.706;2023-02-16T07:02:21;102124.88;;;9.84;67.65
32735;BME280;19112;51.076;3.706;2023-02-16T07:04:47;102100.09;;;9.79;67.71
32735;BME280;19112;51.076;3.706;2023-02-16T07:07:13;102199.84;;;10.41;67.60
32735;BME280;19112;51.076;3.706;2023-02-16T07:09:39;102195.22;;;10.37;67.51
32735;BME280;19112;51.076;3.706;2023-02-16T07:12:05;102252.56;;;10.61;67.79
32735;BME280;19112;51.076;3.706;2023-02-16T07:14:32;102150.19;;;10.15;67.66
32735;BME280;19112;51.076;3.706;2023-02-16T07:16:58;102156.44;;;10.17;67.59
32735;BME280;19112;51.076;3.706;2023-02-16T07:19:27;102252.50;;;10.75;67.69
32735;BME280;19112;51.076;3.706;2023-02-16T07:21:57;102168.50;;;10.28;67.67
32735;BME280;19112;51.076;3.706;2023-02-16T07:24:23;102211.69;;;10.49;67.98
32735;BME280;19112;51.076;3.706;2023-02-16T07:26:49;102072.66;;;9.58;67.91
32735;BME280;19112;51.076;3.706;2023-02-16T07:29:15;102026.13;;;9.54;67.57
32735;BME280;19112;51.076;3.706;2023-02-16T07:31:40;102243.97;;;10.80;67.99
32735;BME280;19112;51.076;3.706;2023-02-16T07:34:06;102080.84;;;9.79;68.04
32735;BME280;19112;51.076;3.706;2023-02-16T07:36:32;102271.72;;;10.91;68.27
32735;BME280;19112;51.076;3.706;2023-02-16T07:38:58;102116.25;;;10.02;68.55
32735;BME280;19112;51.076;3.706;2023-02-16T07:41:24;102186.22;;;10.48;68.58
32735;BME280;19112;51.076;3.706;2023-02-16T07:43:50;102067.84;;;9.80;68.87
32735;BME280;19112;51.076;3.706;2023-02-16T07:46:16;102182.94;;;10.36;69.12
32735;BME280;19112;51.076;3.706;2023-02-16T07:48:42;102034.97;;;9.56;69.29
32735;BME280;19112;51.076;3.706;2023-02-16T07:51:08;102228.81;;;10.59;69.87
32735;BME280;19112;51.076;3.706;2023-02-16T07:53:33;102251.44;;;10.72;70.05
32735;BME280;19112;51.076;3.706;2023-02-16T07:55:59;102289.22;;;10.90;70.61
32735;BME280;19112;51.076;3.706;2023-02-16T07:58:25;102051.53;;;9.55;70.68
32735;BME280;19112;51.076;3.706;2023-02-16T08:01:07;102092.06;;;9.76;70.89
32735;BME280;19112;51.076;3.706;2023-02-16T08:03:33;102272.19;;;10.67;71.32
32735;BME280;19112;51.076;3.706;2023-02-16T08:06:03;102151.84;;;10.13;71.36
32735;BME280;19112;51.076;3.706;2023-02-16T08:08:30;102281.81;;;10.83;71.61
32735;BME280;19112;51.076;3.706;2023-02-16T08:10:56;102206.81;;;10.41;72.06
32735;BME280;19112;51.076;3.706;2023-02-16T08:13:22;102298.31;;;10.81;72.45
32735;BME280;19112;51.076;3.706;2023-02-16T08:15:48;101881.63;;;8.54;72.44
32735;BME280;19112;51.076;3.706;2023-02-16T08:18:13;102127.16;;;10.09;72.70
32735;BME280;19112;51.076;3.706;2023-02-16T08:20:40;102188.69;;;10.45;72.87
32735;BME280;19112;51.076;3.706;2023-02-16T08:23:06;102223.13;;;10.66;73.27
32735;BME280;19112;51.076;3.706;2023-02-16T08:25:36;102255.88;;;10.89;73.33
32735;BME280;19112;51.076;3.706;2023-02-16T08:28:02;101885.47;;;8.76;73.57
32735;BME280;19112;51.076;3.706;2023-02-16T08:30:28;102075.09;;;9.69;74.30
32735;BME280;19112;51.076;3.706;2023-02-16T08:32:54;102263.81;;;10.74;74.70
32735;BME280;19112;51.076;3.706;2023-02-16T08:35:27;102265.72;;;10.77;74.74
32735;BME280;19112;51.076;3.706;2023-02-16T08:37:53;102274.59;;;10.79;74.79
32735;BME280;19112;51.076;3.706;2023-02-16T08:40:19;102176.38;;;10.28;74.91
32735;BME280;19112;51.076;3.706;2023-02-16T08:42:49;102266.72;;;10.79;75.10
32735;BME280;19112;51.076;3.706;2023-02-16T08:45:15;102270.41;;;10.83;75.19
32735;BME280;19112;51.076;3.706;2023-02-16T08:47:41;102260.63;;;10.96;74.86
32735;BME280;19112;51.076;3.706;2023-02-16T08:50:07;101732.53;;;8.10;74.32
32735;BME280;19112;51.076;3.706;2023-02-16T08:52:33;102112.38;;;10.26;74.54
32735;BME280;19112;51.076;3.706;2023-02-16T08:54:59;102193.47;;;10.69;74.47
32735;BME280;19112;51.076;3.706;2023-02-16T08:57:24;102188.66;;;10.77;74.41
32735;BME280;19112;51.076;3.706;2023-02-16T08:59:50;102226.97;;;11.06;74.45
32735;BME280;19112;51.076;3.706;2023-02-16T09:02:36;101963.22;;;9.54;73.88
32735;BME280;19112;51.076;3.706;2023-02-16T09:05:02;101977.72;;;9.63;74.15
32735;BME280;19112;51.076;3.706;2023-02-16T09:07:27;102179.88;;;10.76;74.06
32735;BME280;19112;51.076;3.706;2023-02-16T09:09:53;101654.31;;;7.83;73.55
32735;BME280;19112;51.076;3.706;2023-02-16T09:12:19;102137.66;;;10.57;73.77
32735;BME280;19112;51.076;3.706;2023-02-16T09:14:45;102158.34;;;10.67;74.10
32735;BME280;19112;51.076;3.706;2023-02-16T09:17:11;102268.63;;;11.31;74.24
32735;BME280;19112;51.076;3.706;2023-02-16T09:19:37;102068.31;;;10.37;73.91
32735;BME280;19112;51.076;3.706;2023-02-16T09:22:03;102210.22;;;11.20;73.82
32735;BME280;19112;51.076;3.706;2023-02-16T09:24:28;102273.31;;;11.70;73.34
32735;BME280;19112;51.076;3.706;2023-02-16T09:26:54;102280.88;;;11.80;73.41
32735;BME280;19112;51.076;3.706;2023-02-16T09:29:20;101923.09;;;9.87;72.77
32735;BME280;19112;51.076;3.706;2023-02-16T09:31:46;102199.28;;;11.63;72.43
32735;BME280;19112;51.076;3.706;2023-02-16T09:34:19;102247.84;;;12.03;72.04
32735;BME280;19112;51.076;3.706;2023-02-16T09:36:45;102170.19;;;11.60;72.04
32735;BME280;19112;51.076;3.706;2023-02-16T09:39:12;102242.91;;;12.10;71.87
32735;BME280;19112;51.076;3.706;2023-02-16T09:47:38;102134.06;;;11.73;70.41
32735;BME280;19112;51.076;3.706;2023-02-16T09:50:22;102037.69;;;11.22;70.31
32735;BME280;19112;51.076;3.706;2023-02-16T09:53:26;102268.97;;;12.58;70.52
32735;BME280;19112;51.076;3.706;2023-02-16T10:05:17;102222.16;;;12.53;70.19
32735;BME280;19112;51.076;3.706;2023-02-16T10:08:12;102265.56;;;12.61;70.48
32735;BME280;19112;51.076;3.706;2023-02-16T10:13:56;102178.03;;;12.29;70.34
32735;BME280;19112;51.076;3.706;2023-02-16T10:16:33;102248.56;;;12.92;70.25
32735;BME280;19112;51.076;3.706;2023-02-16T10:19:19;102000.09;;;11.60;69.80
32735;BME280;19112;51.076;3.706;2023-02-16T10:21:50;101580.78;;;9.42;69.44
32735;BME280;19112;51.076;3.706;2023-02-16T10:24:17;102094.41;;;12.43;69.12
32735;BME280;19112;51.076;3.706;2023-02-16T10:27:00;102137.38;;;12.81;68.73
32735;BME280;19112;51.076;3.706;2023-02-16T10:29:27;101998.41;;;12.17;68.62
32735;BME280;19112;51.076;3.706;2023-02-16T10:35:02;102223.41;;;13.18;68.09
32735;BME280;19112;51.076;3.706;2023-02-16T10:40:51;102251.44;;;13.35;68.62
32735;BME280;19112;51.076;3.706;2023-02-16T10:43:55;102235.47;;;13.13;68.61
32735;BME280;19112;51.076;3.706;2023-02-16T10:46:37;102095.63;;;12.51;68.99
32735;BME280;19112;51.076;3.706;2023-02-16T10:49:07;102037.28;;;12.23;68.54
32735;BME280;19112;51.076;3.706;2023-02-16T10:51:37;102138.91;;;12.76;68.32
32735;BME280;19112;51.076;3.706;2023-02-16T10:54:11;102093.84;;;12.70;68.38
32735;BME280;19112;51.076;3.706;2023-02-16T10:59:40;102257.69;;;13.77;67.85
32735;BME280;19112;51.076;3.706;2023-02-16T11:02:37;102200.44;;;13.55;67.62
32735;BME280;19112;51.076;3.706;2023-02-16T11:05:38;102245.84;;;13.88;67.83
32735;BME280;19112;51.076;3.706;2023-02-16T11:08:07;102170.03;;;13.43;68.50
32735;BME280;19112;51.076;3.706;2023-02-16T11:10:47;102176.31;;;13.67;67.90
32735;BME280;19112;51.076;3.706;2023-02-16T11:13:33;102237.41;;;14.18;67.77
32735;BME280;19112;51.076;3.706;2023-02-16T11:16:06;102133.13;;;13.86;67.61
32735;BME280;19112;51.076;3.706;2023-02-16T11:18:42;102019.25;;;13.33;66.47
32735;BME280;19112;51.076;3.706;2023-02-16T11:21:10;102014.22;;;13.40;66.39
32735;BME280;19112;51.076;3.706;2023-02-16T11:23:42;102040.16;;;13.72;66.07
32735;BME280;19112;51.076;3.706;2023-02-16T11:28:43;102142.03;;;14.33;65.48
32735;BME280;19112;51.076;3.706;2023-02-16T11:31:15;102227.53;;;14.57;65.94
32735;BME280;19112;51.076;3.706;2023-02-16T11:36:32;102220.03;;;14.68;65.80
32735;BME280;19112;51.076;3.706;2023-02-16T11:39:01;102222.31;;;14.81;65.68
32735;BME280;19112;51.076;3.706;2023-02-16T11:41:28;102031.09;;;13.66;65.60
32735;BME280;19112;51.076;3.706;2023-02-16T11:43:55;102123.66;;;14.37;65.44
32735;BME280;19112;51.076;3.706;2023-02-16T11:46:22;102142.25;;;14.39;65.21
32735;BME280;19112;51.076;3.706;2023-02-16T11:48:49;102057.25;;;13.82;65.44
32735;BME280;19112;51.076;3.706;2023-02-16T11:51:32;102192.00;;;14.49;65.61
32735;BME280;19112;51.076;3.706;2023-02-16T11:54:04;102211.28;;;14.93;65.11
32735;BME280;19112;51.076;3.706;2023-02-16T11:56:33;102202.06;;;15.06;64.93
32735;BME280;19112;51.076;3.706;2023-02-16T11:59:18;102095.75;;;14.44;64.60
32735;BME280;19112;51.076;3.706;2023-02-16T12:02:07;102205.56;;;15.05;64.68
32735;BME280;19112;51.076;3.706;2023-02-16T12:04:56;102196.22;;;15.14;64.66
32735;BME280;19112;51.076;3.706;2023-02-16T12:11:08;102170.91;;;14.97;64.69
32735;BME280;19112;51.076;3.706;2023-02-16T12:14:04;102123.56;;;14.57;64.80
32735;BME280;19112;51.076;3.706;2023-02-16T12:22:46;102158.38;;;15.17;64.85
32735;BME280;19112;51.076;3.706;2023-02-16T12:25:37;101881.66;;;13.45;64.64
32735;BME280;19112;51.076;3.706;2023-02-16T12:28:39;102167.38;;;15.22;64.49
32735;BME280;19112;51.076;3.706;2023-02-16T12:31:28;102164.19;;;15.32;64.35
32735;BME280;19112;51.076;3.706;2023-02-16T12:34:19;102152.69;;;15.56;63.91
32735;BME280;19112;51.076;3.706;2023-02-16T12:37:13;102164.59;;;15.68;63.30
32735;BME280;19112;51.076;3.706;2023-02-16T12:40:15;102168.06;;;15.93;63.15
32735;BME280;19112;51.076;3.706;2023-02-16T12:43:06;102159.78;;;16.11;62.16
32735;BME280;19112;51.076;3.706;2023-02-16T12:45:41;101941.72;;;14.98;61.68
32735;BME280;19112;51.076;3.706;2023-02-16T12:48:35;102146.66;;;16.42;61.47
32735;BME280;19112;51.076;3.706;2023-02-16T12:51:37;102147.53;;;16.43;61.29
32735;BME280;19112;51.076;3.706;2023-02-16T12:54:08;102088.31;;;15.84;60.95
32735;BME280;19112;51.076;3.706;2023-02-16T12:56:46;102154.28;;;16.32;60.99
32735;BME280;19112;51.076;3.706;2023-02-16T12:59:29;102139.41;;;16.37;61.16
32735;BME280;19112;51.076;3.706;2023-02-16T13:02:00;102147.25;;;16.34;60.80
32735;BME280;19112;51.076;3.706;2023-02-16T13:05:02;102140.03;;;16.58;60.72
32735;BME280;19112;51.076;3.706;2023-02-16T13:07:43;102130.41;;;16.62;60.60
32735;BME280;19112;51.076;3.706;2023-02-16T13:10:34;102086.47;;;16.40;60.41
32735;BME280;19112;51.076;3.706;2023-02-16T13:13:15;102060.75;;;16.36;60.42
32735;BME280;19112;51.076;3.706;2023-02-16T13:15:49;102080.22;;;16.38;60.59
32735;BME280;19112;51.076;3.706;2023-02-16T13:18:32;102118.13;;;16.65;60.58
32735;BME280;19112;51.076;3.706;2023-02-16T13:24:12;102115.69;;;16.71;59.89
32735;BME280;19112;51.076;3.706;2023-02-16T13:27:16;102107.91;;;16.77;59.97
32735;BME280;19112;51.076;3.706;2023-02-16T13:30:29;102112.97;;;16.70;59.83
32735;BME280;19112;51.076;3.706;2023-02-16T13:33:29;102105.25;;;16.77;59.83
32735;BME280;19112;51.076;3.706;2023-02-16T13:37:05;102094.59;;;16.76;59.60
32735;BME280;19112;51.076;3.706;2023-02-16T13:39:39;102087.94;;;16.60;60.11
32735;BME280;19112;51.076;3.706;2023-02-16T13:45:27;102087.78;;;16.54;61.02
32735;BME280;19112;51.076;3.706;2023-02-16T13:47:55;101672.41;;;14.26;60.33
32735;BME280;19112;51.076;3.706;2023-02-16T13:52:52;102069.28;;;16.26;60.50
32735;BME280;19112;51.076;3.706;2023-02-16T13:55:30;101997.41;;;15.85;60.18
32735;BME280;19112;51.076;3.706;2023-02-16T13:58:46;101999.00;;;15.80;59.61
32735;BME280;19112;51.076;3.706;2023-02-16T14:00:48;101985.91;;;15.56;59.21
32735;BME280;19112;51.076;3.706;2023-02-16T14:05:52;101930.44;;;15.32;59.41
32735;BME280;19112;51.076;3.706;2023-02-16T14:08:30;101896.66;;;15.23;59.52
32735;BME280;19112;51.076;3.706;2023-02-16T14:10:59;102052.09;;;16.13;60.10
32735;BME280;19112;51.076;3.706;2023-02-16T14:13:51;101995.69;;;15.87;60.07
32735;BME280;19112;51.076;3.706;2023-02-16T14:18:46;101942.44;;;15.49;60.23
32735;BME280;19112;51.076;3.706;2023-02-16T14:21:46;101975.75;;;15.69;60.18
32735;BME280;19112;51.076;3.706;2023-02-16T14:24:30;101952.13;;;15.49;60.26
32735;BME280;19112;51.076;3.706;2023-02-16T14:27:08;101942.59;;;15.54;60.27
32735;BME280;19112;51.076;3.706;2023-02-16T14:29:55;101890.78;;;15.33;60.15
32735;BME280;19112;51.076;3.706;2023-02-16T14:32:28;101862.84;;;15.13;60.33
32735;BME280;19112;51.076;3.706;2023-02-16T14:35:20;102046.28;;;16.24;60.13
32735;BME280;19112;51.076;3.706;2023-02-16T14:37:55;102006.16;;;15.82;60.72
32735;BME280;19112;51.076;3.706;2023-02-16T15:00:54;101960.81;;;15.71;60.93